Las Cruces International Airport
KLRU : rendu visible

Aérodrome :











RETROUVEZ-NOUS SUR...

 
LOGIN :

S'inscrire | Disclaimer

   EN    FR    IT 

 









Légende :    VFR   VFR Marginal   IFR   IFR Intensif   IFR Très Intensif
Visi : 
Plafond : 
>= 8 km
>= 3000ft
5 à 8 km
1000 à 3000 ft
1500m à 5 km
500 à 1000 ft
800 à 1500m
200 à 500 ft
< 800m
< 200 ft
Symboles :   Orages  Brouillard  Fortes neiges  Fortes précipitations  Vent > 20 kt






- Altitude de l'aérodrome : 4456 ft
- Code IATA : LRU


KLRU - Las Cruces International

DERNIER METAR :
  • 250555Z AUTO 28019G23KT 10SM CLR 23/M07 A2986 RMK AO2 T02251071 10290 20225

METARs EXPIRÉS :
  • 250535Z AUTO 28018G23KT 10SM CLR 23/M07 A2986 RMK AO2 T02261068
  • 250515Z AUTO 28019G24KT 10SM CLR 23/M07 A2985 RMK AO2 T02281066
  • 250455Z AUTO 27019G24KT 10SM CLR 23/M07 A2984 RMK AO2 T02281066
  • 250435Z AUTO 27019G26KT 10SM CLR 23/M07 A2984 RMK AO2 T02311066
  • 250415Z AUTO 27017G21KT 10SM CLR 23/M07 A2984 RMK AO2 T02331070
  • 250355Z AUTO 27014G18KT 10SM CLR 23/M07 A2984 RMK AO2 T02331073
  • 250335Z AUTO 27013KT 10SM CLR 24/M08 A2984 RMK AO2 T02351076
  • 250315Z AUTO 27011KT 10SM CLR 23/M07 A2984 RMK AO2 T02291073

TAF KLRU
Valide du 25 à 06h jusqu'au 26 à 06h UTC


250520Z 2506/2606 28015G25KT P6SM FEW250
FM250800 29011KT P6SM SKC
FM251000 35012G20KT P6SM FEW120
FM251800 31009KT P6SM SCT120
FM260200 08012G20KT P6SM FEW120
FIR KZAB / Amérique du Nord



MET'MAP, la Météo Aéronautique d'un coup d'oeil ! - Copyright ORBIFLY Décembre 2007 - Disclaimer

ORBIFLY MET'MAP TEAM :

Programmation & Développement : Alexandra Zaïnal
Sur une idée originale de : Baudouin d'Aumeries
Assistance à la programmation : Marc-Olivier Méhu
Soutien technique & logistique : Manuel Goepfert

Contact : metmap@orbifly.com




SOURCES & CREDITS :

   NOAA       Earth
Advisory